Strona główna
METAR-TAF:

METAR-TAF

Lotnisko :

Koror, Babeldaob, Palau

Port lotniczy Koror

Szerokość geograficzna: 07-22N, Długość geograficzna: 134-32E, wysokość: 54 m

Aktualna obserwacja pogody

Raport powstał 56 minut temu, godzina 04:50 UTC
Wiatr 10 kt od wschodnio-północny wschód w porywach dochodzący do 16 kt
Temperatura 29°C
Wilgotność 74%
Ciśnienie 1007 hPa
Widzialność: 24.1 km
Przerywane chmury na wysokości 1500 ft, Cumulusy wypiętrznone.
Przerywane chmury na wysokości 12000 ft
Przerywane chmury na wysokości 30000 ft

METAR: PTRO 180450Z 07010G16KT 15SM BKN015TCU BKN120 BKN300 29/24 A2975 RMK TCU ALQDS

czas: 14:46 (05:46 UTC)

Prognoza

Raport powstał 22 minut temu, godzina 05:24 UTC
Prognoza ważna od 18 godzina 06 UTC do 19 godzina 06 UTC
Wiatr 10 kt od wschodnio-północny wschód
Widzialność: 10 km
Rozproszone chmury na wysokości 1500 ft
Przerywane chmury na wysokości 12000 ft
przelotny w pobliże

TAF: PTRO 180524Z 1806/1906 07010KT P6SM VCSH SCT015 BKN120

Obserwacja i prognoza pogody dla ponad 4000 lotnisk (raport METAR i TAF).

Dostępne stacje oznaczono żółtymi i czerwonymi punktami na mapie.

Najedź kursorem aby zobaczyć nazwę stacji.

Kliknij aby zobaczyć obserwacje i prognozy pogody.

Aby zmienić mapę: kliknij na zielony przycisk z czarnym krzyżykiem, aby powiększyć; na zielony przycisk z myślnikiem, aby pomniejszyć; na zielone strzałki, aby przejść do map sąsiednich.


METAR-TAF: